Time;durP1;ratioP1;P1;durP2;ratioP2;P2;SDS_P1;SDS_P2;PMS_P1;PMS_P2;Temp;Humidity;BMP_temperature;BMP_pressure;BME280_temperature;BME280_humidity;BME280_pressure;Samples;Min_cycle;Max_cycle;Signal;HPM_P1;HPM_P2
2020/12/01 00:00:48;;;;;;;;;;;;;;;-0.06;100.00;100833.47;5113787;28;19924;-71
2020/12/01 00:03:14;;;;;;;;;;;;;;;-0.07;100.00;100832.59;5114102;28;19955;-71
2020/12/01 00:05:39;;;;;;;;;;;;;;;-0.05;100.00;100827.22;5113972;28;19924;-71
2020/12/01 00:08:05;;;;;;;;;;;;;;;-0.02;100.00;100827.09;5112621;28;19931;-71
2020/12/01 00:10:34;;;;;;;;;;;;;;;0.01;100.00;100835.00;5113783;28;20378;-71
2020/12/01 00:13:01;;;;;;;;;;;;;;;0.03;100.00;100832.25;5113790;28;19927;-71
2020/12/01 00:15:27;;;;;;;;;;;;;;;0.04;100.00;100829.56;5113801;28;20015;-71
2020/12/01 00:17:53;;;;;;;;;;;;;;;0.05;100.00;100825.94;5113547;28;19927;-71
2020/12/01 00:20:19;;;;;;;;;;;;;;;0.07;100.00;100817.91;5113897;28;19930;-71
2020/12/01 00:22:45;;;;;;;;;;;;;;;0.07;100.00;100810.75;5113741;28;20200;-71
2020/12/01 00:25:11;;;;;;;;;;;;;;;0.10;100.00;100813.31;5113385;28;20447;-71
2020/12/01 00:27:37;;;;;;;;;;;;;;;0.10;100.00;100805.31;5113427;28;19924;-71
2020/12/01 00:30:07;;;;;;;;;;;;;;;0.14;100.00;100803.41;5113477;28;20428;-71
2020/12/01 00:32:32;;;;;;;;;;;;;;;0.14;100.00;100806.06;5113573;28;19924;-71
2020/12/01 00:34:58;;;;;;;;;;;;;;;0.16;100.00;100809.53;5113355;28;19935;-71
2020/12/01 00:37:24;;;;;;;;;;;;;;;0.19;100.00;100796.09;5113339;27;19996;-71
2020/12/01 00:39:50;;;;;;;;;;;;;;;0.19;100.00;100800.53;5112070;28;19924;-70
2020/12/01 00:42:15;;;;;;;;;;;;;;;0.21;100.00;100793.38;5112218;28;19984;-71
2020/12/01 00:44:41;;;;;;;;;;;;;;;0.22;100.00;100800.44;5112099;28;19942;-71
2020/12/01 00:47:08;;;;;;;;;;;;;;;0.23;100.00;100795.06;5111702;28;19923;-70
2020/12/01 00:49:34;;;;;;;;;;;;;;;0.24;100.00;100790.56;5112086;28;20292;-71
2020/12/01 00:52:00;;;;;;;;;;;;;;;0.24;100.00;100790.56;5112026;28;20016;-70
2020/12/01 00:54:26;;;;;;;;;;;;;;;0.26;100.00;100788.72;5111847;28;19928;-70
2020/12/01 00:56:52;;;;;;;;;;;;;;;0.24;100.00;100782.56;5112771;28;19934;-70
2020/12/01 00:59:18;;;;;;;;;;;;;;;0.24;100.00;100782.56;5111633;28;20010;-71
2020/12/01 01:01:50;;;;;;;;;;;;;;;0.26;100.00;100772.72;5111942;28;20301;-71
2020/12/01 01:04:17;;;;;;;;;;;;;;;0.26;100.00;100778.03;5111679;28;19949;-70
2020/12/01 01:06:46;;;;;;;;;;;;;;;0.25;100.00;100778.97;5112333;28;19955;-70
2020/12/01 01:09:12;;;;;;;;;;;;;;;0.28;100.00;100779.72;5112785;28;19967;-71
2020/12/01 01:11:37;;;;;;;;;;;;;;;0.27;100.00;100777.97;5112660;28;19928;-71
2020/12/01 01:14:03;;;;;;;;;;;;;;;0.29;100.00;100775.25;5112616;28;19941;-70
2020/12/01 01:16:29;;;;;;;;;;;;;;;0.27;100.00;100767.31;5112497;28;19923;-71
2020/12/01 01:18:55;;;;;;;;;;;;;;;0.29;100.00;100762.75;5112656;28;19950;-71
2020/12/01 01:21:23;;;;;;;;;;;;;;;0.28;100.00;100765.50;5112244;27;19924;-70
2020/12/01 01:23:49;;;;;;;;;;;;;;;0.29;100.00;100768.09;5112753;28;19931;-71
2020/12/01 01:26:15;;;;;;;;;;;;;;;0.30;100.00;100769.00;5111076;28;19924;-70
2020/12/01 01:28:41;;;;;;;;;;;;;;;0.27;100.00;100761.97;5112486;28;20109;-70
2020/12/01 01:31:07;;;;;;;;;;;;;;;0.31;100.00;100763.59;5112370;28;19950;-70
2020/12/01 01:33:32;;;;;;;;;;;;;;;0.31;100.00;100765.41;5112433;28;19931;-70
2020/12/01 01:35:58;;;;;;;;;;;;;;;0.33;100.00;100766.19;5112174;28;20335;-70
2020/12/01 01:38:25;;;;;;;;;;;;;;;0.33;100.00;100764.41;5111511;28;19972;-70
2020/12/01 01:40:54;;;;;;;;;;;;;;;0.32;100.00;100757.31;5111898;28;19975;-70
2020/12/01 01:43:20;;;;;;;;;;;;;;;0.32;100.00;100756.44;5112317;28;19990;-70
2020/12/01 01:45:47;;;;;;;;;;;;;;;0.32;100.00;100751.97;5112150;28;19924;-71
2020/12/01 01:48:15;;;;;;;;;;;;;;;0.33;100.00;100751.06;5110652;28;19982;-70
2020/12/01 01:50:41;;;;;;;;;;;;;;;0.34;100.00;100746.56;5112003;28;19938;-71
2020/12/01 01:53:07;;;;;;;;;;;;;;;0.36;100.00;100743.84;5112131;28;20362;-70
2020/12/01 01:55:33;;;;;;;;;;;;;;;0.37;100.00;100741.09;5111943;28;19924;-70
2020/12/01 01:58:01;;;;;;;;;;;;;;;0.41;100.00;100744.53;5111673;28;19966;-70
2020/12/01 02:00:39;;;;;;;;;;;;;;;0.40;100.00;100735.66;5111928;28;19937;-70
2020/12/01 02:03:05;;;;;;;;;;;;;;;0.44;100.00;100729.28;5111784;28;20340;-70
2020/12/01 02:05:31;;;;;;;;;;;;;;;0.47;100.00;100729.16;5111859;28;20273;-71
2020/12/01 02:07:57;;;;;;;;;;;;;;;0.49;100.00;100737.97;5111673;28;19980;-71
2020/12/01 02:10:23;;;;;;;;;;;;;;;0.51;100.00;100727.22;5111789;28;20297;-72
2020/12/01 02:12:51;;;;;;;;;;;;;;;0.54;100.00;100723.56;5111766;28;20442;-70
2020/12/01 02:15:17;;;;;;;;;;;;;;;0.53;100.00;100725.34;5111839;28;20019;-70
2020/12/01 02:17:43;;;;;;;;;;;;;;;0.54;100.00;100724.44;5111323;28;19924;-70
2020/12/01 02:20:11;;;;;;;;;;;;;;;0.55;100.00;100726.19;5111734;28;19924;-70
2020/12/01 02:22:37;;;;;;;;;;;;;;;0.55;100.00;100718.16;5111759;28;19927;-70
2020/12/01 02:25:03;;;;;;;;;;;;;;;0.57;100.00;100731.47;5111650;28;19923;-70
2020/12/01 02:27:29;;;;;;;;;;;;;;;0.55;100.00;100715.50;5111527;28;20286;-70
2020/12/01 02:29:57;;;;;;;;;;;;;;;0.56;100.00;100714.56;5111595;28;19974;-70
2020/12/01 02:32:24;;;;;;;;;;;;;;;0.58;100.00;100717.19;5111610;28;20343;-70
2020/12/01 02:34:51;;;;;;;;;;;;;;;0.55;100.00;100709.25;5111273;28;19957;-70
2020/12/01 02:37:17;;;;;;;;;;;;;;;0.54;100.00;100712.88;5111538;28;19969;-71
2020/12/01 02:39:43;;;;;;;;;;;;;;;0.53;100.00;100708.47;5111463;28;20397;-71
2020/12/01 02:42:11;;;;;;;;;;;;;;;0.49;100.00;100705.03;5111658;28;19986;-71
2020/12/01 02:44:38;;;;;;;;;;;;;;;0.48;100.00;100701.50;5111576;28;20023;-71
2020/12/01 02:47:05;;;;;;;;;;;;;;;0.47;100.00;100705.09;5111484;28;19969;-72
2020/12/01 02:49:31;;;;;;;;;;;;;;;0.46;100.00;100694.47;5113550;28;20015;-72
2020/12/01 02:51:57;;;;;;;;;;;;;;;0.45;100.00;100700.75;5115235;28;19924;-70
2020/12/01 02:54:22;;;;;;;;;;;;;;;0.45;100.00;100701.59;5115558;28;20304;-71
2020/12/01 02:56:48;;;;;;;;;;;;;;;0.46;100.00;100711.38;5113712;28;19923;-71
2020/12/01 02:59:14;;;;;;;;;;;;;;;0.48;100.00;100708.63;5115535;28;19923;-71
2020/12/01 03:01:41;;;;;;;;;;;;;;;0.49;100.00;100705.94;5115315;28;20018;-71
2020/12/01 03:04:07;;;;;;;;;;;;;;;0.52;100.00;100707.56;5115446;28;19967;-71
2020/12/01 03:06:33;;;;;;;;;;;;;;;0.55;100.00;100710.16;5115084;28;19963;-71
2020/12/01 03:08:59;;;;;;;;;;;;;;;0.58;100.00;100706.50;5115215;28;20339;-71
2020/12/01 03:11:25;;;;;;;;;;;;;;;0.60;100.00;100705.50;5115239;28;19924;-71
2020/12/01 03:13:51;;;;;;;;;;;;;;;0.62;100.00;100706.28;5115196;28;20399;-70
2020/12/01 03:16:16;;;;;;;;;;;;;;;0.64;100.00;100706.22;5114936;28;19949;-71
2020/12/01 03:18:44;;;;;;;;;;;;;;;0.66;100.00;100701.69;5115090;28;20041;-71
2020/12/01 03:21:11;;;;;;;;;;;;;;;0.65;100.00;100706.16;5115034;28;19966;-71
2020/12/01 03:23:37;;;;;;;;;;;;;;;0.66;100.00;100707.03;5114874;28;20010;-71
2020/12/01 03:26:03;;;;;;;;;;;;;;;0.68;100.00;100707.84;5114709;28;19930;-71
2020/12/01 03:28:29;;;;;;;;;;;;;;;0.71;100.00;100710.41;5114975;28;20019;-71
2020/12/01 03:30:55;;;;;;;;;;;;;;;0.71;100.00;100704.16;5114781;28;20286;-70
2020/12/01 03:33:21;;;;;;;;;;;;;;;0.71;100.00;100702.38;5114836;28;19924;-71
2020/12/01 03:35:48;;;;;;;;;;;;;;;0.72;100.00;100704.13;5114676;28;19939;-70
2020/12/01 03:38:14;;;;;;;;;;;;;;;0.73;100.00;100710.34;5114676;28;20419;-70
2020/12/01 03:40:39;;;;;;;;;;;;;;;0.74;100.00;100710.28;5114708;28;19927;-70
2020/12/01 03:43:05;;;;;;;;;;;;;;;0.73;100.00;100700.50;5114360;28;19992;-70
2020/12/01 03:45:31;;;;;;;;;;;;;;;0.74;100.00;100699.59;5114534;28;20415;-71
2020/12/01 03:47:57;;;;;;;;;;;;;;;0.74;100.00;100696.91;5114341;28;19932;-70
2020/12/01 03:50:24;;;;;;;;;;;;;;;0.75;100.00;100701.34;5114464;28;20019;-70
2020/12/01 03:52:51;;;;;;;;;;;;;;;0.75;100.00;100689.75;5114403;28;20022;-70
2020/12/01 03:55:17;;;;;;;;;;;;;;;0.78;100.00;100689.66;5114439;28;20385;-70
2020/12/01 03:57:43;;;;;;;;;;;;;;;0.78;100.00;100693.19;5114281;28;19928;-71
2020/12/01 04:00:09;;;;;;;;;;;;;;;0.79;100.00;100688.72;5111596;28;19923;-71
2020/12/01 04:02:35;;;;;;;;;;;;;;;0.78;100.00;100687.84;5114109;28;20404;-70
2020/12/01 04:05:01;;;;;;;;;;;;;;;0.79;100.00;100683.38;5114257;28;19955;-70
2020/12/01 04:07:27;;;;;;;;;;;;;;;0.80;100.00;100698.44;5113977;28;19923;-70
2020/12/01 04:09:53;;;;;;;;;;;;;;;0.80;100.00;100682.41;5113963;28;20021;-70
2020/12/01 04:12:19;;;;;;;;;;;;;;;0.82;100.00;100686.78;5114109;28;19955;-71
2020/12/01 04:14:45;;;;;;;;;;;;;;;0.83;100.00;100687.66;5113874;28;20353;-70
2020/12/01 04:17:11;;;;;;;;;;;;;;;0.85;100.00;100687.59;5113480;28;19931;-72
2020/12/01 04:19:37;;;;;;;;;;;;;;;0.86;100.00;100695.53;5113886;28;19928;-71
2020/12/01 04:22:02;;;;;;;;;;;;;;;0.83;100.00;100685.84;5113864;28;19924;-70
2020/12/01 04:24:28;;;;;;;;;;;;;;;0.83;100.00;100690.34;5113953;28;20086;-70
2020/12/01 04:26:55;;;;;;;;;;;;;;;0.85;100.00;100687.59;5113591;27;19927;-70
2020/12/01 04:29:21;;;;;;;;;;;;;;;0.85;100.00;100690.25;5113816;28;19924;-70
2020/12/01 04:31:46;;;;;;;;;;;;;;;0.83;100.00;100690.34;5113653;28;20041;-70
2020/12/01 04:34:12;;;;;;;;;;;;;;;0.81;100.00;100687.69;5113563;28;19935;-70
2020/12/01 04:36:38;;;;;;;;;;;;;;;0.81;100.00;100692.19;5113388;27;19924;-71
2020/12/01 04:39:04;;;;;;;;;;;;;;;0.79;100.00;100684.22;5113402;28;19924;-72
2020/12/01 04:41:29;;;;;;;;;;;;;;;0.80;100.00;100691.31;5113537;28;19938;-72
2020/12/01 04:43:58;;;;;;;;;;;;;;;0.81;100.00;100693.03;5113450;28;20297;-71
2020/12/01 04:46:25;;;;;;;;;;;;;;;0.82;100.00;100686.78;5113277;28;20475;-73
2020/12/01 04:48:53;;;;;;;;;;;;;;;0.83;100.00;100691.19;5113317;28;20345;-71
2020/12/01 04:51:27;;;;;;;;;;;;;;;0.83;100.00;100695.69;5112979;28;20023;-70
2020/12/01 04:54:09;;;;;;;;;;;;;;;0.86;100.00;100694.69;5113292;28;19927;-71
2020/12/01 04:56:54;;;;;;;;;;;;;;;0.84;100.00;100697.38;5112952;28;19931;-71
2020/12/01 04:59:26;;;;;;;;;;;;;;;0.86;100.00;100694.69;5113105;28;19924;-71
2020/12/01 05:02:09;;;;;;;;;;;;;;;0.88;100.00;100703.50;5113272;28;19955;-71
2020/12/01 05:04:41;;;;;;;;;;;;;;;0.87;100.00;100699.06;5113152;28;20341;-71
2020/12/01 05:07:18;;;;;;;;;;;;;;;0.87;100.00;100696.41;5112551;28;19977;-70
2020/12/01 05:09:45;;;;;;;;;;;;;;;0.88;100.00;100703.50;5112842;28;19924;-71
2020/12/01 05:12:15;;;;;;;;;;;;;;;0.86;100.00;100694.69;5111928;28;20020;-70
2020/12/01 05:14:44;;;;;;;;;;;;;;;0.85;100.00;100699.13;5112681;28;19935;-70
2020/12/01 05:17:37;;;;;;;;;;;;;;;0.84;100.00;100697.38;5112525;28;19972;-70
2020/12/01 05:20:04;;;;;;;;;;;;;;;0.87;100.00;100704.41;5106382;28;20019;-70
2020/12/01 05:22:30;;;;;;;;;;;;;;;0.86;100.00;100697.34;5103339;28;20006;-70
2020/12/01 05:24:56;;;;;;;;;;;;;;;0.83;100.00;100704.56;5112480;28;19971;-70
2020/12/01 05:27:24;;;;;;;;;;;;;;;0.79;100.00;100710.97;5094178;28;20558;-70
2020/12/01 05:29:55;;;;;;;;;;;;;;;0.73;100.00;100707.66;5093277;28;19931;-70
2020/12/01 05:32:24;;;;;;;;;;;;;;;0.70;100.00;100706.00;5103364;28;19924;-70
2020/12/01 05:34:50;;;;;;;;;;;;;;;0.69;100.00;100720.28;5095321;28;19953;-70
2020/12/01 05:37:16;;;;;;;;;;;;;;;0.66;100.00;100718.59;5093674;28;19924;-71
2020/12/01 05:39:42;;;;;;;;;;;;;;;0.66;100.00;100725.75;5091561;28;19928;-71
2020/12/01 05:42:19;;;;;;;;;;;;;;;0.66;100.00;100733.75;5094874;28;19925;-71
2020/12/01 05:44:54;;;;;;;;;;;;;;;0.66;100.00;100739.09;5092165;28;19924;-70
2020/12/01 05:47:25;;;;;;;;;;;;;;;0.68;100.00;100739.03;5098788;28;19924;-70
2020/12/01 05:50:03;;;;;;;;;;;;;;;0.67;100.00;100743.53;5091813;28;19985;-70
2020/12/01 05:52:31;;;;;;;;;;;;;;;0.66;100.00;100745.31;5111962;28;19977;-70
2020/12/01 05:55:11;;;;;;;;;;;;;;;0.66;100.00;100747.13;5111460;28;20026;-70
2020/12/01 05:57:36;;;;;;;;;;;;;;;0.67;100.00;100748.88;5091307;28;20014;-71
2020/12/01 06:00:05;;;;;;;;;;;;;;;0.65;100.00;100750.72;5091152;28;20408;-69
2020/12/01 06:02:43;;;;;;;;;;;;;;;0.67;100.00;100754.22;5109368;28;20277;-70
2020/12/01 06:05:09;;;;;;;;;;;;;;;0.65;100.00;100753.38;5112290;28;19966;-70
2020/12/01 06:07:36;;;;;;;;;;;;;;;0.64;100.00;100755.22;5105921;28;20007;-71
2020/12/01 06:10:15;;;;;;;;;;;;;;;0.63;100.00;100752.59;5091428;28;20027;-70
2020/12/01 06:12:59;;;;;;;;;;;;;;;0.65;100.00;100756.06;5096928;28;20006;-71
2020/12/01 06:15:26;;;;;;;;;;;;;;;0.65;100.00;100750.72;5110524;28;20022;-71
2020/12/01 06:17:57;;;;;;;;;;;;;;;0.66;100.00;100752.47;5108570;28;19955;-71
2020/12/01 06:20:28;;;;;;;;;;;;;;;0.68;100.00;100761.28;5111971;28;20396;-71
2020/12/01 06:23:13;;;;;;;;;;;;;;;0.70;100.00;100759.44;5101211;28;20014;-71
2020/12/01 06:26:02;;;;;;;;;;;;;;;0.72;100.00;100759.38;5102214;28;19924;-71
2020/12/01 06:28:43;;;;;;;;;;;;;;;0.74;100.00;100765.53;5037690;28;20090;-71
2020/12/01 06:31:20;;;;;;;;;;;;;;;0.75;100.00;100772.59;5111443;28;19955;-71
2020/12/01 06:34:02;;;;;;;;;;;;;;;0.78;100.00;100780.50;5111663;28;20350;-71
2020/12/01 06:36:49;;;;;;;;;;;;;;;0.79;100.00;100777.78;5093744;28;20014;-71
2020/12/01 06:39:22;;;;;;;;;;;;;;;0.79;100.00;100777.78;5083723;28;20006;-71
2020/12/01 06:41:53;;;;;;;;;;;;;;;0.83;100.00;100784.72;5103996;28;19980;-71
2020/12/01 06:44:21;;;;;;;;;;;;;;;0.82;100.00;100784.81;5098398;28;20010;-71
2020/12/01 06:46:48;;;;;;;;;;;;;;;0.83;100.00;100775.84;5107896;28;19924;-71
2020/12/01 06:49:18;;;;;;;;;;;;;;;0.82;100.00;100787.47;5110006;28;19967;-71
2020/12/01 06:51:46;;;;;;;;;;;;;;;0.83;100.00;100790.09;5108991;28;19932;-71
2020/12/01 06:54:13;;;;;;;;;;;;;;;0.85;100.00;100791.81;5111804;28;19969;-71
2020/12/01 06:56:39;;;;;;;;;;;;;;;0.81;100.00;100789.25;5095928;28;20027;-71
2020/12/01 06:59:07;;;;;;;;;;;;;;;0.85;100.00;100789.16;5090749;28;19931;-71
2020/12/01 07:01:34;;;;;;;;;;;;;;;0.85;100.00;100790.00;5100853;28;19927;-71
2020/12/01 07:04:01;;;;;;;;;;;;;;;0.87;100.00;100792.63;5109752;28;19969;-71
2020/12/01 07:06:40;;;;;;;;;;;;;;;0.85;100.00;100799.84;5108571;28;19967;-71
2020/12/01 07:09:05;;;;;;;;;;;;;;;0.88;100.00;100800.56;5106670;28;20011;-71
2020/12/01 07:11:32;;;;;;;;;;;;;;;0.88;100.00;100799.72;5090784;28;20049;-72
2020/12/01 07:14:00;;;;;;;;;;;;;;;0.86;100.00;100793.56;5093775;28;19938;-70
2020/12/01 07:16:28;;;;;;;;;;;;;;;0.83;100.00;100798.09;5111227;28;19985;-71
2020/12/01 07:18:57;;;;;;;;;;;;;;;0.83;100.00;100803.44;5109549;28;19924;-71
2020/12/01 07:21:24;;;;;;;;;;;;;;;0.87;100.00;100803.31;5111698;28;19928;-70
2020/12/01 07:23:55;;;;;;;;;;;;;;;0.88;100.00;100807.72;5091437;28;20295;-71
2020/12/01 07:26:31;;;;;;;;;;;;;;;0.90;100.00;100803.22;5093368;28;19924;-70
2020/12/01 07:29:03;;;;;;;;;;;;;;;0.89;100.00;100813.00;5109386;28;19928;-71
2020/12/01 07:31:31;;;;;;;;;;;;;;;0.95;100.00;100811.88;5091010;28;19969;-70
2020/12/01 07:33:59;;;;;;;;;;;;;;;0.95;100.00;100811.88;5094663;28;20416;-71
2020/12/01 07:36:28;;;;;;;;;;;;;;;0.93;100.00;100811.09;5112665;28;19993;-70
2020/12/01 07:39:17;;;;;;;;;;;;;;;0.97;100.00;100812.72;5112949;28;19927;-70
2020/12/01 07:41:48;;;;;;;;;;;;;;;0.96;100.00;100816.31;5089399;28;19934;-71
2020/12/01 07:44:17;;;;;;;;;;;;;;;1.01;100.00;100830.38;5097400;28;20042;-70
2020/12/01 07:46:51;;;;;;;;;;;;;;;1.06;100.00;100831.06;5104448;28;19950;-70
2020/12/01 07:49:18;;;;;;;;;;;;;;;1.12;100.00;100833.50;5108646;28;19931;-70
2020/12/01 07:51:44;;;;;;;;;;;;;;;1.26;100.00;100834.75;5114209;28;19952;-70
2020/12/01 07:54:17;;;;;;;;;;;;;;;1.29;100.00;100837.28;5092745;28;19924;-71
2020/12/01 07:56:43;;;;;;;;;;;;;;;1.28;100.00;100832.88;5105797;28;20035;-70
2020/12/01 07:59:11;;;;;;;;;;;;;;;1.32;100.00;100839.81;5094589;28;19930;-70
2020/12/01 08:01:37;;;;;;;;;;;;;;;1.23;100.00;100837.53;5111779;28;19939;-71
2020/12/01 08:04:04;;;;;;;;;;;;;;;1.21;100.00;100839.41;5111473;28;19930;-70
2020/12/01 08:06:30;;;;;;;;;;;;;;;1.24;100.00;100845.47;5095246;28;20120;-70
2020/12/01 08:08:56;;;;;;;;;;;;;;;1.30;100.00;100844.38;5113975;28;19984;-70
2020/12/01 08:11:22;;;;;;;;;;;;;;;1.27;100.00;100845.38;5097708;28;19928;-71
2020/12/01 08:13:51;;;;;;;;;;;;;;;1.32;100.00;100848.75;5075666;28;19924;-70
2020/12/01 08:16:20;;;;;;;;;;;;;;;1.25;100.00;100846.38;5107430;28;19927;-71
2020/12/01 08:18:46;;;;;;;;;;;;;;;1.28;100.00;100846.25;5112969;28;19924;-71
2020/12/01 08:21:13;;;;;;;;;;;;;;;1.37;100.00;100845.88;5111153;28;19951;-71
2020/12/01 08:23:40;;;;;;;;;;;;;;;1.43;100.00;100850.97;5102457;28;19950;-71
2020/12/01 08:26:10;;;;;;;;;;;;;;;1.39;100.00;100843.13;5110459;28;20455;-71
2020/12/01 08:28:37;;;;;;;;;;;;;;;1.36;100.00;100851.28;5095005;28;19924;-71
2020/12/01 08:31:10;;;;;;;;;;;;;;;1.39;100.00;100852.03;5096308;28;19938;-71
2020/12/01 08:33:45;;;;;;;;;;;;;;;1.28;100.00;100856.94;5105301;28;19977;-71
2020/12/01 08:36:18;;;;;;;;;;;;;;;1.25;100.00;100857.94;5102713;28;19955;-71
2020/12/01 08:38:58;;;;;;;;;;;;;;;1.20;100.00;100861.72;5108907;28;19978;-71
2020/12/01 08:41:32;;;;;;;;;;;;;;;1.28;100.00;100862.28;5096850;28;20407;-73
2020/12/01 08:44:05;;;;;;;;;;;;;;;1.27;100.00;100869.44;5080477;28;19924;-71
2020/12/01 08:46:32;;;;;;;;;;;;;;;1.29;100.00;100872.06;5096308;28;19924;-71
2020/12/01 08:49:06;;;;;;;;;;;;;;;1.30;100.00;100881.84;5102113;28;19974;-70
2020/12/01 08:51:35;;;;;;;;;;;;;;;1.34;100.00;100880.78;5109978;28;19930;-70
2020/12/01 08:54:07;;;;;;;;;;;;;;;1.29;100.00;100874.72;5105880;28;19928;-71
2020/12/01 08:56:43;;;;;;;;;;;;;;;1.29;100.00;100886.28;5111971;28;19928;-71
2020/12/01 08:59:11;;;;;;;;;;;;;;;1.38;100.00;100892.19;5108715;28;20020;-71
2020/12/01 09:01:38;;;;;;;;;;;;;;;1.47;100.00;100892.72;5096591;28;20030;-70
2020/12/01 09:04:05;;;;;;;;;;;;;;;1.49;100.00;100889.97;5105815;28;19924;-71
2020/12/01 09:06:33;;;;;;;;;;;;;;;1.54;100.00;100898.69;5114310;28;19959;-71
2020/12/01 09:09:03;;;;;;;;;;;;;;;1.60;100.00;100894.88;5113204;28;19988;-71
2020/12/01 09:11:59;;;;;;;;;;;;;;;1.76;100.00;100904.00;5104077;28;19946;-72
2020/12/01 09:14:41;;;;;;;;;;;;;;;1.70;100.00;100900.72;5092652;28;19924;-71
2020/12/01 09:17:12;;;;;;;;;;;;;;;1.73;100.00;100896.13;5092210;28;20370;-71
2020/12/01 09:22:24;;;;;;;;;;;;;;;1.69;100.00;100905.22;5092347;28;19928;-71
2020/12/01 09:24:50;;;;;;;;;;;;;;;1.67;100.00;100904.38;5099847;28;19923;-70
2020/12/01 09:27:18;;;;;;;;;;;;;;;1.71;100.00;100907.81;5115181;28;19927;-71
2020/12/01 09:29:45;;;;;;;;;;;;;;;1.75;100.00;100904.97;5115767;28;19928;-71
2020/12/01 09:32:14;;;;;;;;;;;;;;;1.87;100.00;100900.03;5101711;28;19931;-71
2020/12/01 09:34:41;;;;;;;;;;;;;;;1.89;100.00;100900.84;5101673;28;19923;-71
2020/12/01 09:37:07;;;;;;;;;;;;;;;1.98;100.00;100905.81;5114760;28;19924;-71
2020/12/01 09:39:34;;;;;;;;;;;;;;;2.10;100.00;100902.59;5110963;28;19928;-70
2020/12/01 09:42:06;;;;;;;;;;;;;;;2.10;100.00;100905.28;5096094;28;20043;-71
2020/12/01 09:47:24;;;;;;;;;;;;;;;2.05;100.00;100909.09;5065905;28;19924;-71
2020/12/01 09:49:51;;;;;;;;;;;;;;;2.05;100.00;100909.97;5104085;28;19930;-69
2020/12/01 09:52:21;;;;;;;;;;;;;;;2.10;100.00;100910.63;5092858;28;19924;-72
2020/12/01 09:54:52;;;;;;;;;;;;;;;2.03;100.00;100919.84;5095341;28;19928;-70
2020/12/01 09:57:23;;;;;;;;;;;;;;;2.07;100.00;100921.50;5104935;28;20607;-70
2020/12/01 10:00:09;;;;;;;;;;;;;;;2.14;100.00;100906.88;5112163;28;19955;-71
2020/12/01 10:08:26;;;;;;;;;;;;;;;2.22;100.00;100925.31;5131955;27;19954;-70
2020/12/01 10:11:04;;;;;;;;;;;;;;;2.25;100.00;100916.28;5114304;28;19924;-70
2020/12/01 10:13:44;;;;;;;;;;;;;;;2.41;100.00;100929.88;5125403;28;19930;-71
2020/12/01 10:19:38;;;;;;;;;;;;;;;2.30;100.00;100933.03;5129726;27;19934;-71
2020/12/01 10:25:36;;;;;;;;;;;;;;;2.31;100.00;100934.75;5124793;27;19924;-71
2020/12/01 10:36:17;;;;;;;;;;;;;;;2.62;100.00;100934.28;5112074;28;19977;-71
2020/12/01 10:38:42;;;;;;;;;;;;;;;2.51;100.00;100928.50;5108102;28;20019;-70
2020/12/01 10:41:09;;;;;;;;;;;;;;;2.32;100.00;100931.13;5108760;28;20373;-71
2020/12/01 10:43:35;;;;;;;;;;;;;;;2.34;100.00;100940.84;5109447;28;20018;-70
2020/12/01 10:46:01;;;;;;;;;;;;;;;2.31;100.00;100937.41;5112822;28;19924;-70
2020/12/01 10:48:26;;;;;;;;;;;;;;;2.33;100.00;100941.78;5118129;27;19930;-71
2020/12/01 10:50:52;;;;;;;;;;;;;;;2.17;100.00;100938.88;5109292;28;19935;-71
2020/12/01 10:53:18;;;;;;;;;;;;;;;2.27;100.00;100943.84;5108304;28;20393;-70
2020/12/01 10:55:44;;;;;;;;;;;;;;;2.35;100.00;100947.06;5106878;28;19931;-71
2020/12/01 10:58:10;;;;;;;;;;;;;;;2.44;100.00;100948.47;5122292;28;19928;-70
2020/12/01 11:00:36;;;;;;;;;;;;;;;2.33;100.00;100955.16;5122728;27;20525;-70
2020/12/01 11:03:02;;;;;;;;;;;;;;;2.32;100.00;100953.41;5108208;28;19928;-70
2020/12/01 11:05:29;;;;;;;;;;;;;;;2.39;100.00;100958.53;5123256;28;20285;-71
2020/12/01 11:07:55;;;;;;;;;;;;;;;2.38;100.00;100960.34;5126731;28;19958;-70
2020/12/01 11:10:21;;;;;;;;;;;;;;;2.34;100.00;100980.19;5115383;27;20533;-71
2020/12/01 11:12:47;;;;;;;;;;;;;;;2.33;100.00;100975.75;5112236;28;19924;-71
2020/12/01 11:15:13;;;;;;;;;;;;;;;2.30;100.00;100975.88;5115684;28;20469;-71
2020/12/01 11:17:39;;;;;;;;;;;;;;;2.34;100.00;100983.72;5125944;27;20434;-71
2020/12/01 11:20:06;;;;;;;;;;;;;;;2.38;100.00;100978.22;5107590;28;19924;-71
2020/12/01 11:22:32;;;;;;;;;;;;;;;2.41;100.00;100970.91;5096995;28;19930;-71
2020/12/01 11:24:58;;;;;;;;;;;;;;;2.46;100.00;100971.59;5094334;28;19955;-71
2020/12/01 11:27:24;;;;;;;;;;;;;;;2.52;100.00;100978.50;5093907;28;20304;-71
2020/12/01 11:29:50;;;;;;;;;;;;;;;2.62;100.00;100971.81;5094338;28;19924;-71
2020/12/01 11:32:16;;;;;;;;;;;;;;;2.73;100.00;100973.16;5095418;28;19928;-71
2020/12/01 11:34:42;;;;;;;;;;;;;;;2.63;100.00;100976.22;5093794;28;19925;-71
2020/12/01 11:37:08;;;;;;;;;;;;;;;2.70;100.00;100975.94;5093306;28;20435;-70
2020/12/01 11:39:34;;;;;;;;;;;;;;;2.63;100.00;100975.34;5093773;28;19958;-71
2020/12/01 11:42:01;;;;;;;;;;;;;;;2.66;100.00;100973.41;5090176;28;19994;-71
2020/12/01 11:44:27;;;;;;;;;;;;;;;2.56;100.00;100971.19;5092020;28;19932;-71
2020/12/01 11:46:52;;;;;;;;;;;;;;;2.59;100.00;100976.41;5093867;28;20009;-71
2020/12/01 11:49:19;;;;;;;;;;;;;;;2.65;100.00;100973.47;5093838;28;19928;-71
2020/12/01 11:51:47;;;;;;;;;;;;;;;2.60;100.00;100981.69;5099739;28;20022;-71
2020/12/01 11:54:13;;;;;;;;;;;;;;;2.65;100.00;100982.38;5098866;28;20023;-71
2020/12/01 11:56:38;;;;;;;;;;;;;;;2.69;100.00;100975.06;5099688;28;20451;-71
2020/12/01 11:59:05;;;;;;;;;;;;;;;2.80;100.00;100975.47;5094054;28;19942;-71
2020/12/01 12:01:30;;;;;;;;;;;;;;;2.72;100.00;100969.56;5093703;28;20019;-71
2020/12/01 12:03:56;;;;;;;;;;;;;;;2.58;100.00;100980.03;5093334;28;19924;-71
2020/12/01 12:06:23;;;;;;;;;;;;;;;2.61;100.00;100974.56;5109251;28;19946;-71
2020/12/01 12:08:49;;;;;;;;;;;;;;;2.73;100.00;100971.31;5106311;28;19963;-71
2020/12/01 12:11:14;;;;;;;;;;;;;;;2.82;100.00;100978.09;5114173;28;19931;-71
2020/12/01 12:13:45;;;;;;;;;;;;;;;2.95;100.00;100978.41;5102631;27;19939;-71
2020/12/01 12:16:11;;;;;;;;;;;;;;;3.05;100.00;100982.41;5093106;28;20666;-71
2020/12/01 12:18:37;;;;;;;;;;;;;;;3.12;100.00;100967.75;5103159;28;19931;-71
2020/12/01 12:21:03;;;;;;;;;;;;;;;3.19;100.00;100976.41;5104103;28;19927;-71
2020/12/01 12:23:29;;;;;;;;;;;;;;;3.14;100.00;100973.03;5095726;28;19931;-71
2020/12/01 12:25:55;;;;;;;;;;;;;;;3.12;100.00;100970.44;5094037;28;20048;-71
2020/12/01 12:28:21;;;;;;;;;;;;;;;3.10;100.00;100977.72;5093241;28;20400;-70
2020/12/01 12:30:47;;;;;;;;;;;;;;;3.01;100.00;100980.81;5094659;28;19933;-70
2020/12/01 12:33:13;;;;;;;;;;;;;;;2.88;100.00;100979.63;5113406;28;20345;-70
2020/12/01 12:35:39;;;;;;;;;;;;;;;2.88;100.00;100995.72;5108045;28;20023;-71
2020/12/01 12:38:05;;;;;;;;;;;;;;;2.93;100.00;100991.03;5112816;28;20346;-70
2020/12/01 12:40:32;;;;;;;;;;;;;;;2.87;100.00;100994.81;5100458;28;19924;-70
2020/12/01 12:42:57;;;;;;;;;;;;;;;2.93;100.00;100994.56;5092940;28;20046;-70
2020/12/01 12:45:23;;;;;;;;;;;;;;;3.01;100.00;100999.59;5092961;28;20394;-71
2020/12/01 12:47:49;;;;;;;;;;;;;;;3.12;100.00;101004.47;5097774;28;20327;-70
2020/12/01 12:50:15;;;;;;;;;;;;;;;3.16;100.00;101006.91;5096027;28;19978;-71
2020/12/01 12:52:41;;;;;;;;;;;;;;;3.20;100.00;101009.47;5099105;28;19938;-71
2020/12/01 12:55:08;;;;;;;;;;;;;;;3.12;100.00;101008.00;5104316;28;19923;-70
2020/12/01 12:57:35;;;;;;;;;;;;;;;3.09;100.00;101007.28;5092743;28;19970;-70
2020/12/01 13:00:02;;;;;;;;;;;;;;;3.22;100.00;101018.31;5095336;28;20046;-70
2020/12/01 13:02:27;;;;;;;;;;;;;;;3.16;100.00;101020.31;5102908;28;19925;-70
2020/12/01 13:04:53;;;;;;;;;;;;;;;3.04;100.00;101018.22;5094441;28;19935;-71
2020/12/01 13:07:19;;;;;;;;;;;;;;;2.99;100.00;101017.53;5092529;28;19924;-71